sensor_id;sensor_type;location;lat;lon;timestamp;P1;durP1;ratioP1;P2;durP2;ratioP2
53521;SDS011;39398;48.382;9.802;2024-02-26T00:03:56;8.68;;;6.07;;
53521;SDS011;39398;48.382;9.802;2024-02-26T00:08:58;7.65;;;5.90;;
53521;SDS011;39398;48.382;9.802;2024-02-26T00:13:59;11.52;;;6.22;;
53521;SDS011;39398;48.382;9.802;2024-02-26T00:19:02;8.20;;;6.30;;
53521;SDS011;39398;48.382;9.802;2024-02-26T00:24:04;10.45;;;7.05;;
53521;SDS011;39398;48.382;9.802;2024-02-26T00:29:06;8.55;;;5.97;;
53521;SDS011;39398;48.382;9.802;2024-02-26T00:34:09;11.35;;;6.82;;
53521;SDS011;39398;48.382;9.802;2024-02-26T00:39:11;9.63;;;6.30;;
53521;SDS011;39398;48.382;9.802;2024-02-26T00:44:13;12.23;;;6.78;;
53521;SDS011;39398;48.382;9.802;2024-02-26T00:49:16;9.15;;;6.68;;
53521;SDS011;39398;48.382;9.802;2024-02-26T00:54:18;9.13;;;6.60;;
53521;SDS011;39398;48.382;9.802;2024-02-26T00:59:19;5.57;;;3.90;;
53521;SDS011;39398;48.382;9.802;2024-02-26T01:04:22;7.20;;;4.22;;
53521;SDS011;39398;48.382;9.802;2024-02-26T01:09:24;6.85;;;4.68;;
53521;SDS011;39398;48.382;9.802;2024-02-26T01:14:25;9.38;;;5.60;;
53521;SDS011;39398;48.382;9.802;2024-02-26T01:19:28;10.60;;;6.80;;
53521;SDS011;39398;48.382;9.802;2024-02-26T01:24:30;11.23;;;8.15;;
53521;SDS011;39398;48.382;9.802;2024-02-26T01:29:32;12.43;;;8.60;;
53521;SDS011;39398;48.382;9.802;2024-02-26T01:34:34;10.68;;;7.32;;
53521;SDS011;39398;48.382;9.802;2024-02-26T01:39:36;9.30;;;6.55;;
53521;SDS011;39398;48.382;9.802;2024-02-26T01:44:38;10.32;;;6.45;;
53521;SDS011;39398;48.382;9.802;2024-02-26T01:49:41;11.00;;;6.63;;
53521;SDS011;39398;48.382;9.802;2024-02-26T01:54:43;10.23;;;6.78;;
53521;SDS011;39398;48.382;9.802;2024-02-26T01:59:46;9.07;;;5.75;;
53521;SDS011;39398;48.382;9.802;2024-02-26T02:04:49;10.75;;;6.97;;
53521;SDS011;39398;48.382;9.802;2024-02-26T02:09:51;14.45;;;8.82;;
53521;SDS011;39398;48.382;9.802;2024-02-26T02:14:54;11.40;;;7.38;;
53521;SDS011;39398;48.382;9.802;2024-02-26T02:19:57;7.93;;;5.30;;
53521;SDS011;39398;48.382;9.802;2024-02-26T02:25:00;12.65;;;6.75;;
53521;SDS011;39398;48.382;9.802;2024-02-26T02:30:02;15.57;;;8.82;;
53521;SDS011;39398;48.382;9.802;2024-02-26T02:35:04;14.85;;;6.85;;
53521;SDS011;39398;48.382;9.802;2024-02-26T02:40:08;13.65;;;8.93;;
53521;SDS011;39398;48.382;9.802;2024-02-26T02:45:10;17.83;;;8.90;;
53521;SDS011;39398;48.382;9.802;2024-02-26T02:50:12;17.83;;;10.02;;
53521;SDS011;39398;48.382;9.802;2024-02-26T02:55:16;15.05;;;8.43;;
53521;SDS011;39398;48.382;9.802;2024-02-26T03:00:17;17.13;;;8.73;;
53521;SDS011;39398;48.382;9.802;2024-02-26T03:05:19;11.88;;;7.63;;
53521;SDS011;39398;48.382;9.802;2024-02-26T03:10:22;16.83;;;8.02;;
53521;SDS011;39398;48.382;9.802;2024-02-26T03:15:24;13.73;;;7.00;;
53521;SDS011;39398;48.382;9.802;2024-02-26T03:20:25;12.75;;;7.32;;
53521;SDS011;39398;48.382;9.802;2024-02-26T03:25:28;12.15;;;7.75;;
53521;SDS011;39398;48.382;9.802;2024-02-26T03:30:30;14.85;;;9.50;;
53521;SDS011;39398;48.382;9.802;2024-02-26T03:35:32;17.30;;;10.32;;
53521;SDS011;39398;48.382;9.802;2024-02-26T03:40:34;16.08;;;9.40;;
53521;SDS011;39398;48.382;9.802;2024-02-26T03:45:36;17.05;;;11.43;;
53521;SDS011;39398;48.382;9.802;2024-02-26T03:50:38;17.92;;;11.50;;
53521;SDS011;39398;48.382;9.802;2024-02-26T03:55:41;16.17;;;12.07;;
53521;SDS011;39398;48.382;9.802;2024-02-26T04:00:42;15.50;;;11.35;;
53521;SDS011;39398;48.382;9.802;2024-02-26T04:05:44;17.33;;;10.82;;
53521;SDS011;39398;48.382;9.802;2024-02-26T04:10:47;15.25;;;9.30;;
53521;SDS011;39398;48.382;9.802;2024-02-26T04:15:49;9.73;;;5.43;;
53521;SDS011;39398;48.382;9.802;2024-02-26T04:20:50;14.15;;;10.55;;
53521;SDS011;39398;48.382;9.802;2024-02-26T04:25:53;14.13;;;10.98;;
53521;SDS011;39398;48.382;9.802;2024-02-26T04:30:55;14.10;;;9.75;;
53521;SDS011;39398;48.382;9.802;2024-02-26T04:35:56;15.13;;;10.20;;
53521;SDS011;39398;48.382;9.802;2024-02-26T04:40:59;15.80;;;10.23;;
53521;SDS011;39398;48.382;9.802;2024-02-26T04:46:01;16.63;;;10.95;;
53521;SDS011;39398;48.382;9.802;2024-02-26T04:51:03;13.60;;;9.27;;
53521;SDS011;39398;48.382;9.802;2024-02-26T04:56:06;11.15;;;8.07;;
53521;SDS011;39398;48.382;9.802;2024-02-26T05:01:08;12.20;;;7.47;;
53521;SDS011;39398;48.382;9.802;2024-02-26T05:06:09;10.50;;;6.47;;
53521;SDS011;39398;48.382;9.802;2024-02-26T05:11:13;11.55;;;6.45;;
53521;SDS011;39398;48.382;9.802;2024-02-26T05:16:14;12.07;;;9.30;;
53521;SDS011;39398;48.382;9.802;2024-02-26T05:21:16;13.93;;;8.70;;
53521;SDS011;39398;48.382;9.802;2024-02-26T05:26:22;13.00;;;8.38;;
53521;SDS011;39398;48.382;9.802;2024-02-26T05:31:24;8.88;;;4.88;;
53521;SDS011;39398;48.382;9.802;2024-02-26T05:36:26;13.27;;;8.25;;
53521;SDS011;39398;48.382;9.802;2024-02-26T05:41:29;11.50;;;7.80;;
53521;SDS011;39398;48.382;9.802;2024-02-26T05:46:30;12.98;;;9.00;;
53521;SDS011;39398;48.382;9.802;2024-02-26T05:51:32;13.23;;;9.00;;
53521;SDS011;39398;48.382;9.802;2024-02-26T05:56:35;12.15;;;8.15;;
53521;SDS011;39398;48.382;9.802;2024-02-26T06:01:36;12.00;;;7.72;;
53521;SDS011;39398;48.382;9.802;2024-02-26T06:06:38;10.60;;;5.93;;
53521;SDS011;39398;48.382;9.802;2024-02-26T06:11:45;15.65;;;8.63;;
53521;SDS011;39398;48.382;9.802;2024-02-26T06:16:46;12.35;;;7.88;;
53521;SDS011;39398;48.382;9.802;2024-02-26T06:21:48;11.85;;;7.85;;
53521;SDS011;39398;48.382;9.802;2024-02-26T06:26:51;11.80;;;6.78;;
53521;SDS011;39398;48.382;9.802;2024-02-26T06:31:53;9.43;;;5.45;;
53521;SDS011;39398;48.382;9.802;2024-02-26T06:36:55;10.07;;;7.00;;
53521;SDS011;39398;48.382;9.802;2024-02-26T06:41:58;9.55;;;5.95;;
53521;SDS011;39398;48.382;9.802;2024-02-26T06:47:00;9.07;;;4.45;;
53521;SDS011;39398;48.382;9.802;2024-02-26T06:52:02;7.28;;;4.78;;
53521;SDS011;39398;48.382;9.802;2024-02-26T06:57:05;12.38;;;5.53;;
53521;SDS011;39398;48.382;9.802;2024-02-26T07:02:07;10.13;;;5.40;;
53521;SDS011;39398;48.382;9.802;2024-02-26T07:07:08;17.73;;;10.70;;
53521;SDS011;39398;48.382;9.802;2024-02-26T07:12:13;16.20;;;9.70;;
53521;SDS011;39398;48.382;9.802;2024-02-26T07:17:14;16.77;;;10.40;;
53521;SDS011;39398;48.382;9.802;2024-02-26T07:22:16;17.38;;;9.60;;
53521;SDS011;39398;48.382;9.802;2024-02-26T07:27:19;19.58;;;11.07;;
53521;SDS011;39398;48.382;9.802;2024-02-26T07:32:20;14.98;;;9.00;;
53521;SDS011;39398;48.382;9.802;2024-02-26T07:37:22;15.52;;;8.85;;
53521;SDS011;39398;48.382;9.802;2024-02-26T07:42:25;14.43;;;9.60;;
53521;SDS011;39398;48.382;9.802;2024-02-26T07:47:27;12.48;;;8.27;;
53521;SDS011;39398;48.382;9.802;2024-02-26T07:52:28;13.55;;;8.18;;
53521;SDS011;39398;48.382;9.802;2024-02-26T07:57:31;10.98;;;7.63;;
53521;SDS011;39398;48.382;9.802;2024-02-26T08:02:34;7.10;;;6.18;;
53521;SDS011;39398;48.382;9.802;2024-02-26T08:07:35;13.80;;;7.32;;
53521;SDS011;39398;48.382;9.802;2024-02-26T08:12:38;12.75;;;7.90;;
53521;SDS011;39398;48.382;9.802;2024-02-26T08:17:40;13.70;;;8.52;;
53521;SDS011;39398;48.382;9.802;2024-02-26T08:22:41;15.88;;;8.80;;
53521;SDS011;39398;48.382;9.802;2024-02-26T08:27:44;12.38;;;7.25;;
53521;SDS011;39398;48.382;9.802;2024-02-26T08:32:47;29.65;;;10.77;;
53521;SDS011;39398;48.382;9.802;2024-02-26T08:37:52;18.98;;;9.05;;
53521;SDS011;39398;48.382;9.802;2024-02-26T08:42:55;16.02;;;8.25;;
53521;SDS011;39398;48.382;9.802;2024-02-26T08:47:57;12.10;;;7.40;;
53521;SDS011;39398;48.382;9.802;2024-02-26T08:52:59;9.52;;;6.07;;
53521;SDS011;39398;48.382;9.802;2024-02-26T08:58:02;6.57;;;3.88;;
53521;SDS011;39398;48.382;9.802;2024-02-26T09:03:04;9.73;;;4.47;;
53521;SDS011;39398;48.382;9.802;2024-02-26T09:08:06;8.68;;;4.63;;
53521;SDS011;39398;48.382;9.802;2024-02-26T09:13:09;6.80;;;4.03;;
53521;SDS011;39398;48.382;9.802;2024-02-26T09:18:11;8.50;;;4.82;;
53521;SDS011;39398;48.382;9.802;2024-02-26T09:23:13;10.98;;;5.57;;
53521;SDS011;39398;48.382;9.802;2024-02-26T09:28:16;7.07;;;4.43;;
53521;SDS011;39398;48.382;9.802;2024-02-26T09:33:18;10.13;;;5.55;;
53521;SDS011;39398;48.382;9.802;2024-02-26T09:38:20;12.27;;;6.57;;
53521;SDS011;39398;48.382;9.802;2024-02-26T09:43:23;12.13;;;6.88;;
53521;SDS011;39398;48.382;9.802;2024-02-26T09:48:25;12.18;;;5.93;;
53521;SDS011;39398;48.382;9.802;2024-02-26T09:53:26;10.10;;;7.05;;
53521;SDS011;39398;48.382;9.802;2024-02-26T09:58:31;8.43;;;5.47;;
53521;SDS011;39398;48.382;9.802;2024-02-26T10:03:36;11.68;;;5.40;;
53521;SDS011;39398;48.382;9.802;2024-02-26T10:08:40;8.15;;;4.65;;
53521;SDS011;39398;48.382;9.802;2024-02-26T10:13:45;11.90;;;6.90;;
53521;SDS011;39398;48.382;9.802;2024-02-26T10:18:47;12.00;;;6.93;;
53521;SDS011;39398;48.382;9.802;2024-02-26T10:23:52;11.00;;;6.07;;
53521;SDS011;39398;48.382;9.802;2024-02-26T10:28:55;10.98;;;7.82;;
53521;SDS011;39398;48.382;9.802;2024-02-26T10:34:01;11.32;;;7.68;;
53521;SDS011;39398;48.382;9.802;2024-02-26T10:39:05;11.15;;;5.90;;
53521;SDS011;39398;48.382;9.802;2024-02-26T10:44:09;7.47;;;4.55;;
53521;SDS011;39398;48.382;9.802;2024-02-26T10:49:13;10.13;;;5.93;;
53521;SDS011;39398;48.382;9.802;2024-02-26T10:54:16;7.05;;;4.55;;
53521;SDS011;39398;48.382;9.802;2024-02-26T10:59:19;5.30;;;3.83;;
53521;SDS011;39398;48.382;9.802;2024-02-26T11:04:21;6.20;;;4.47;;
53521;SDS011;39398;48.382;9.802;2024-02-26T11:09:23;7.40;;;5.30;;
53521;SDS011;39398;48.382;9.802;2024-02-26T11:14:28;5.63;;;4.55;;
53521;SDS011;39398;48.382;9.802;2024-02-26T11:19:30;8.20;;;4.70;;
53521;SDS011;39398;48.382;9.802;2024-02-26T11:24:38;6.85;;;3.97;;
53521;SDS011;39398;48.382;9.802;2024-02-26T11:29:43;7.60;;;4.15;;
53521;SDS011;39398;48.382;9.802;2024-02-26T11:34:49;5.60;;;4.30;;
53521;SDS011;39398;48.382;9.802;2024-02-26T11:39:51;6.72;;;4.63;;
53521;SDS011;39398;48.382;9.802;2024-02-26T11:44:55;9.00;;;4.95;;
53521;SDS011;39398;48.382;9.802;2024-02-26T11:49:56;6.90;;;4.55;;
53521;SDS011;39398;48.382;9.802;2024-02-26T11:54:58;7.43;;;4.38;;
53521;SDS011;39398;48.382;9.802;2024-02-26T12:00:12;7.30;;;4.53;;
53521;SDS011;39398;48.382;9.802;2024-02-26T12:05:15;5.47;;;3.50;;
53521;SDS011;39398;48.382;9.802;2024-02-26T12:10:23;7.43;;;4.00;;
53521;SDS011;39398;48.382;9.802;2024-02-26T12:15:31;5.90;;;3.53;;
53521;SDS011;39398;48.382;9.802;2024-02-26T12:20:33;4.63;;;3.28;;
53521;SDS011;39398;48.382;9.802;2024-02-26T12:25:35;5.32;;;2.80;;
53521;SDS011;39398;48.382;9.802;2024-02-26T12:30:38;4.22;;;3.05;;
53521;SDS011;39398;48.382;9.802;2024-02-26T12:35:39;8.68;;;5.00;;
53521;SDS011;39398;48.382;9.802;2024-02-26T12:40:41;8.55;;;4.43;;
53521;SDS011;39398;48.382;9.802;2024-02-26T12:45:44;7.68;;;4.32;;
53521;SDS011;39398;48.382;9.802;2024-02-26T12:50:46;9.75;;;3.70;;
53521;SDS011;39398;48.382;9.802;2024-02-26T12:55:47;5.70;;;3.60;;
53521;SDS011;39398;48.382;9.802;2024-02-26T13:00:51;6.70;;;4.00;;
53521;SDS011;39398;48.382;9.802;2024-02-26T13:05:53;6.57;;;3.63;;
53521;SDS011;39398;48.382;9.802;2024-02-26T13:10:55;5.32;;;3.83;;
53521;SDS011;39398;48.382;9.802;2024-02-26T13:16:05;6.13;;;4.53;;
53521;SDS011;39398;48.382;9.802;2024-02-26T13:21:08;7.25;;;4.28;;
53521;SDS011;39398;48.382;9.802;2024-02-26T13:26:11;6.95;;;3.95;;
53521;SDS011;39398;48.382;9.802;2024-02-26T13:31:14;6.55;;;4.57;;
53521;SDS011;39398;48.382;9.802;2024-02-26T13:36:16;6.45;;;3.80;;
53521;SDS011;39398;48.382;9.802;2024-02-26T13:41:18;6.30;;;4.18;;
53521;SDS011;39398;48.382;9.802;2024-02-26T13:46:21;7.10;;;3.80;;
53521;SDS011;39398;48.382;9.802;2024-02-26T13:51:22;6.38;;;3.83;;
53521;SDS011;39398;48.382;9.802;2024-02-26T13:56:24;6.03;;;3.33;;
53521;SDS011;39398;48.382;9.802;2024-02-26T14:01:27;5.20;;;3.03;;
53521;SDS011;39398;48.382;9.802;2024-02-26T14:06:28;4.35;;;3.08;;
53521;SDS011;39398;48.382;9.802;2024-02-26T14:11:30;5.18;;;3.85;;
53521;SDS011;39398;48.382;9.802;2024-02-26T14:16:33;9.52;;;4.15;;
53521;SDS011;39398;48.382;9.802;2024-02-26T14:21:35;4.72;;;3.30;;
53521;SDS011;39398;48.382;9.802;2024-02-26T14:26:37;3.53;;;2.60;;
53521;SDS011;39398;48.382;9.802;2024-02-26T14:31:40;6.15;;;3.55;;
53521;SDS011;39398;48.382;9.802;2024-02-26T14:36:43;5.30;;;3.13;;
53521;SDS011;39398;48.382;9.802;2024-02-26T14:41:45;5.93;;;3.72;;
53521;SDS011;39398;48.382;9.802;2024-02-26T14:46:48;6.50;;;3.53;;
53521;SDS011;39398;48.382;9.802;2024-02-26T14:51:49;4.65;;;3.60;;
53521;SDS011;39398;48.382;9.802;2024-02-26T14:56:51;4.65;;;3.30;;
53521;SDS011;39398;48.382;9.802;2024-02-26T15:01:54;5.75;;;3.70;;
53521;SDS011;39398;48.382;9.802;2024-02-26T15:06:56;5.43;;;3.30;;
53521;SDS011;39398;48.382;9.802;2024-02-26T15:11:57;5.97;;;3.85;;
53521;SDS011;39398;48.382;9.802;2024-02-26T15:17:00;5.43;;;3.42;;
53521;SDS011;39398;48.382;9.802;2024-02-26T15:22:02;5.00;;;3.65;;
53521;SDS011;39398;48.382;9.802;2024-02-26T15:27:04;4.15;;;3.63;;
53521;SDS011;39398;48.382;9.802;2024-02-26T15:32:07;4.10;;;2.95;;
53521;SDS011;39398;48.382;9.802;2024-02-26T15:37:09;10.40;;;4.75;;
53521;SDS011;39398;48.382;9.802;2024-02-26T15:42:15;7.15;;;4.57;;
53521;SDS011;39398;48.382;9.802;2024-02-26T15:47:18;6.20;;;4.95;;
53521;SDS011;39398;48.382;9.802;2024-02-26T15:52:19;7.30;;;4.82;;
53521;SDS011;39398;48.382;9.802;2024-02-26T15:57:21;9.85;;;5.30;;
53521;SDS011;39398;48.382;9.802;2024-02-26T16:02:24;7.60;;;4.68;;
53521;SDS011;39398;48.382;9.802;2024-02-26T16:07:27;10.15;;;5.40;;
53521;SDS011;39398;48.382;9.802;2024-02-26T16:12:44;10.73;;;6.10;;
53521;SDS011;39398;48.382;9.802;2024-02-26T16:17:51;8.50;;;6.05;;
53521;SDS011;39398;48.382;9.802;2024-02-26T16:22:53;12.48;;;6.00;;
53521;SDS011;39398;48.382;9.802;2024-02-26T16:27:55;10.63;;;6.40;;
53521;SDS011;39398;48.382;9.802;2024-02-26T16:32:58;12.00;;;7.78;;
53521;SDS011;39398;48.382;9.802;2024-02-26T16:38:00;12.00;;;7.32;;
53521;SDS011;39398;48.382;9.802;2024-02-26T16:43:02;11.30;;;6.60;;
53521;SDS011;39398;48.382;9.802;2024-02-26T16:48:08;14.13;;;9.20;;
53521;SDS011;39398;48.382;9.802;2024-02-26T16:53:10;14.82;;;8.98;;
53521;SDS011;39398;48.382;9.802;2024-02-26T16:58:11;13.25;;;8.23;;
53521;SDS011;39398;48.382;9.802;2024-02-26T17:03:14;13.50;;;9.50;;
53521;SDS011;39398;48.382;9.802;2024-02-26T17:08:16;13.18;;;8.75;;
53521;SDS011;39398;48.382;9.802;2024-02-26T17:13:17;14.70;;;10.18;;
53521;SDS011;39398;48.382;9.802;2024-02-26T17:18:20;15.43;;;9.95;;
53521;SDS011;39398;48.382;9.802;2024-02-26T17:23:22;14.40;;;10.20;;
53521;SDS011;39398;48.382;9.802;2024-02-26T17:28:24;15.95;;;10.43;;
53521;SDS011;39398;48.382;9.802;2024-02-26T17:33:26;15.18;;;9.15;;
53521;SDS011;39398;48.382;9.802;2024-02-26T17:38:28;18.63;;;10.30;;
53521;SDS011;39398;48.382;9.802;2024-02-26T17:43:30;16.88;;;10.13;;
53521;SDS011;39398;48.382;9.802;2024-02-26T17:48:33;16.27;;;10.63;;
53521;SDS011;39398;48.382;9.802;2024-02-26T17:53:34;13.70;;;10.18;;
53521;SDS011;39398;48.382;9.802;2024-02-26T17:58:37;15.65;;;9.73;;
53521;SDS011;39398;48.382;9.802;2024-02-26T18:03:40;15.18;;;9.07;;
53521;SDS011;39398;48.382;9.802;2024-02-26T18:08:42;11.65;;;6.68;;
53521;SDS011;39398;48.382;9.802;2024-02-26T18:13:43;12.57;;;7.07;;
53521;SDS011;39398;48.382;9.802;2024-02-26T18:18:46;12.57;;;8.95;;
53521;SDS011;39398;48.382;9.802;2024-02-26T18:23:48;13.98;;;8.75;;
53521;SDS011;39398;48.382;9.802;2024-02-26T18:28:50;13.57;;;8.32;;
53521;SDS011;39398;48.382;9.802;2024-02-26T18:33:53;14.23;;;6.60;;
53521;SDS011;39398;48.382;9.802;2024-02-26T18:38:55;11.18;;;6.95;;
53521;SDS011;39398;48.382;9.802;2024-02-26T18:43:56;11.68;;;7.07;;
53521;SDS011;39398;48.382;9.802;2024-02-26T18:48:59;14.35;;;6.72;;
53521;SDS011;39398;48.382;9.802;2024-02-26T18:54:01;9.98;;;6.28;;
53521;SDS011;39398;48.382;9.802;2024-02-26T18:59:03;15.45;;;8.73;;
53521;SDS011;39398;48.382;9.802;2024-02-26T19:04:05;9.52;;;5.50;;
53521;SDS011;39398;48.382;9.802;2024-02-26T19:09:07;10.98;;;5.68;;
53521;SDS011;39398;48.382;9.802;2024-02-26T19:14:09;12.20;;;5.97;;
53521;SDS011;39398;48.382;9.802;2024-02-26T19:19:12;9.57;;;5.13;;
53521;SDS011;39398;48.382;9.802;2024-02-26T19:24:14;9.65;;;5.85;;
53521;SDS011;39398;48.382;9.802;2024-02-26T19:29:16;12.02;;;5.97;;
53521;SDS011;39398;48.382;9.802;2024-02-26T19:34:19;14.57;;;7.00;;
53521;SDS011;39398;48.382;9.802;2024-02-26T19:39:20;13.80;;;7.35;;
53521;SDS011;39398;48.382;9.802;2024-02-26T19:44:22;9.68;;;5.70;;
53521;SDS011;39398;48.382;9.802;2024-02-26T19:49:25;11.20;;;5.95;;
53521;SDS011;39398;48.382;9.802;2024-02-26T19:54:27;9.50;;;5.03;;
53521;SDS011;39398;48.382;9.802;2024-02-26T19:59:28;7.88;;;3.85;;
53521;SDS011;39398;48.382;9.802;2024-02-26T20:04:31;9.80;;;5.82;;
53521;SDS011;39398;48.382;9.802;2024-02-26T20:09:33;8.40;;;5.70;;
53521;SDS011;39398;48.382;9.802;2024-02-26T20:14:35;12.90;;;6.65;;
53521;SDS011;39398;48.382;9.802;2024-02-26T20:19:38;9.43;;;5.55;;
53521;SDS011;39398;48.382;9.802;2024-02-26T20:24:39;10.48;;;6.00;;
53521;SDS011;39398;48.382;9.802;2024-02-26T20:29:41;10.75;;;5.78;;
53521;SDS011;39398;48.382;9.802;2024-02-26T20:34:44;9.95;;;3.80;;
53521;SDS011;39398;48.382;9.802;2024-02-26T20:39:46;10.77;;;4.57;;
53521;SDS011;39398;48.382;9.802;2024-02-26T20:44:47;7.28;;;4.43;;
53521;SDS011;39398;48.382;9.802;2024-02-26T20:49:50;8.32;;;4.38;;
53521;SDS011;39398;48.382;9.802;2024-02-26T20:54:52;8.25;;;4.15;;
53521;SDS011;39398;48.382;9.802;2024-02-26T20:59:54;6.47;;;3.88;;
53521;SDS011;39398;48.382;9.802;2024-02-26T21:04:57;7.40;;;4.20;;
53521;SDS011;39398;48.382;9.802;2024-02-26T21:09:58;5.90;;;4.57;;
53521;SDS011;39398;48.382;9.802;2024-02-26T21:15:00;5.43;;;4.13;;
53521;SDS011;39398;48.382;9.802;2024-02-26T21:20:04;6.30;;;4.35;;
53521;SDS011;39398;48.382;9.802;2024-02-26T21:25:07;6.47;;;4.38;;
53521;SDS011;39398;48.382;9.802;2024-02-26T21:30:10;6.90;;;4.18;;
53521;SDS011;39398;48.382;9.802;2024-02-26T21:35:14;6.45;;;3.75;;
53521;SDS011;39398;48.382;9.802;2024-02-26T21:40:16;4.32;;;3.47;;
53521;SDS011;39398;48.382;9.802;2024-02-26T21:45:18;3.80;;;2.80;;
53521;SDS011;39398;48.382;9.802;2024-02-26T21:50:21;4.90;;;2.95;;
53521;SDS011;39398;48.382;9.802;2024-02-26T21:55:22;4.28;;;2.95;;
53521;SDS011;39398;48.382;9.802;2024-02-26T22:00:24;5.03;;;2.70;;
53521;SDS011;39398;48.382;9.802;2024-02-26T22:05:27;4.50;;;3.05;;
53521;SDS011;39398;48.382;9.802;2024-02-26T22:10:29;4.47;;;3.35;;
53521;SDS011;39398;48.382;9.802;2024-02-26T22:15:30;5.70;;;2.70;;
53521;SDS011;39398;48.382;9.802;2024-02-26T22:20:33;7.88;;;2.58;;
53521;SDS011;39398;48.382;9.802;2024-02-26T22:25:35;4.32;;;2.35;;
53521;SDS011;39398;48.382;9.802;2024-02-26T22:30:37;2.95;;;1.90;;
53521;SDS011;39398;48.382;9.802;2024-02-26T22:35:40;2.53;;;2.30;;
53521;SDS011;39398;48.382;9.802;2024-02-26T22:40:41;3.10;;;2.22;;
53521;SDS011;39398;48.382;9.802;2024-02-26T22:45:43;3.17;;;2.20;;
53521;SDS011;39398;48.382;9.802;2024-02-26T22:50:46;3.03;;;1.75;;
53521;SDS011;39398;48.382;9.802;2024-02-26T22:55:48;3.08;;;2.13;;
53521;SDS011;39398;48.382;9.802;2024-02-26T23:00:50;3.85;;;2.30;;
53521;SDS011;39398;48.382;9.802;2024-02-26T23:05:53;4.50;;;2.10;;
53521;SDS011;39398;48.382;9.802;2024-02-26T23:10:55;3.42;;;1.65;;
53521;SDS011;39398;48.382;9.802;2024-02-26T23:15:56;2.30;;;1.55;;
53521;SDS011;39398;48.382;9.802;2024-02-26T23:20:59;3.42;;;1.95;;
53521;SDS011;39398;48.382;9.802;2024-02-26T23:26:01;4.45;;;1.75;;
53521;SDS011;39398;48.382;9.802;2024-02-26T23:31:03;2.78;;;1.50;;
53521;SDS011;39398;48.382;9.802;2024-02-26T23:36:06;1.25;;;1.20;;
53521;SDS011;39398;48.382;9.802;2024-02-26T23:41:08;1.42;;;1.30;;
53521;SDS011;39398;48.382;9.802;2024-02-26T23:46:09;2.67;;;1.60;;
53521;SDS011;39398;48.382;9.802;2024-02-26T23:51:12;4.18;;;2.08;;
53521;SDS011;39398;48.382;9.802;2024-02-26T23:56:14;3.63;;;1.90;;
